Kadena Air Base
RODN : now visible

Airfield :











YOU CAN JOIN US ON...

 
LOGIN :

Register | Disclaimer

   EN    FR    IT 

 









Legend :    VFR   Marginal VFR   IFR   Intensive IFR   Very Intensive IFR
Visi :
Ceiling :
>= 8 km
>= 3000ft
5 to 8 km
1000 to 3000 ft
1500m to 5 km
500 to 1000 ft
800 to 1500m
200 to 500 ft
< 800m
< 200 ft
Symbols :   Thunderstorms  Fog  Heavy snow  Heavy precipitations  Wind > 20 kt






- Airport Elevation : 143 ft
- IATA code : DNA


RODN - Kadena Air Base

CURRENT METAR :
  • 270456Z AUTO 05018G22KT 10SM SCT040 22/04 A3015 RMK AO2 SLPNO T02220043 FZRANO $

EXPIRED METARs :
  • 270356Z AUTO 03014G22KT 10SM CLR 23/04 A3016 RMK AO2 SLPNO T02260037 FZRANO $
  • 270256Z AUTO 03015KT 10SM OVC055 21/04 A3018 RMK AO2 SLPNO T02110042 50003 FZRANO $

TAF AMD TAF RODN
Valid from the 27 at 04:00 until the 28 at 06:00 UTC


270440Z 2704/2806 03015KT 9999 SCT025 BKN030 QNH3016INS
BECMG 2706/2707 03015KT 9999 FEW030 QNH3015INS
TEMPO 2707/2709 04012G18KT
BECMG 2717/2718 06011KT 9999 FEW030 QNH3012INS TX20/2800Z TN18/2718Z



MET'MAP, your aeronautical weather chart ! - Copyright ORBIFLY December 2007 - Disclaimer

ORBIFLY MET'MAP TEAM :

Programming & Development : Alexandra Zaïnal
Concept & original design : Baudouin d'Aumeries
Assistance for programming : Marc-Olivier Méhu
Technical & hardware support : Manuel Goepfert

Contact : metmap@orbifly.com




SOURCES & CREDITS :

   NOAA       Earth
Advisory